createdAt,value
2023-02-27T00:03:21.417Z,82.90
2023-02-27T00:07:26.218Z,82.73
2023-02-27T00:11:29.492Z,83.37
2023-02-27T00:15:33.144Z,82.63
2023-02-27T00:19:36.127Z,83.47
2023-02-27T00:23:38.879Z,83.04
2023-02-27T00:27:42.120Z,82.85
2023-02-27T00:31:45.091Z,82.99
2023-02-27T00:36:02.057Z,83.23
2023-02-27T00:40:05.781Z,83.26
2023-02-27T00:44:08.844Z,83.45
2023-02-27T00:48:11.884Z,83.61
2023-02-27T00:52:14.730Z,84.11
2023-02-27T00:56:17.707Z,84.19
2023-02-27T01:00:20.690Z,84.52
2023-02-27T01:04:23.617Z,84.39
2023-02-27T01:08:26.509Z,84.57
2023-02-27T01:12:29.502Z,84.08
2023-02-27T01:16:32.690Z,84.00
2023-02-27T01:20:35.613Z,83.99
2023-02-27T01:24:38.612Z,84.62
2023-02-27T01:28:41.557Z,85.37
2023-02-27T01:32:44.693Z,85.31
2023-02-27T01:36:47.554Z,85.96
2023-02-27T01:40:50.341Z,86.99
2023-02-27T01:45:11.959Z,85.89
2023-02-27T01:49:21.033Z,85.44
2023-02-27T01:53:26.582Z,85.32
2023-02-27T01:57:29.996Z,85.12
2023-02-27T02:01:34.826Z,84.32
2023-02-27T02:05:38.110Z,83.77
2023-02-27T02:09:45.292Z,83.80
2023-02-27T02:13:53.499Z,83.56
2023-02-27T02:18:11.566Z,83.19
2023-02-27T02:22:32.589Z,82.36
2023-02-27T02:27:07.950Z,81.95
2023-02-27T02:31:10.838Z,81.69
2023-02-27T02:35:46.399Z,81.88
2023-02-27T02:39:59.322Z,82.26
2023-02-27T02:44:20.308Z,82.10
2023-02-27T02:48:37.318Z,81.63
2023-02-27T02:52:54.338Z,82.37
2023-02-27T02:57:08.662Z,82.35
2023-02-27T03:01:27.405Z,82.54
2023-02-27T03:05:42.087Z,82.18
2023-02-27T03:09:57.628Z,82.25
2023-02-27T03:14:08.270Z,82.08
2023-02-27T03:18:20.757Z,81.49
2023-02-27T03:22:31.005Z,81.20
2023-02-27T03:26:39.143Z,81.15
2023-02-27T03:30:51.330Z,81.94
2023-02-27T03:34:54.820Z,81.76
2023-02-27T03:39:05.726Z,81.80
2023-02-27T03:43:21.133Z,81.31
2023-02-27T03:47:24.446Z,80.75
2023-02-27T03:51:28.972Z,80.97
2023-02-27T03:55:39.781Z,81.41
2023-02-27T03:59:43.636Z,81.48
2023-02-27T04:03:53.570Z,80.58
2023-02-27T04:08:25.890Z,81.13
2023-02-27T04:12:37.824Z,82.05
2023-02-27T04:17:23.318Z,81.80
2023-02-27T04:21:54.182Z,82.50
2023-02-27T04:26:09.203Z,82.56
2023-02-27T04:30:45.074Z,82.85
2023-02-27T04:34:59.905Z,83.72
2023-02-27T04:39:22.115Z,84.23
2023-02-27T04:43:27.914Z,84.33
2023-02-27T04:47:38.631Z,84.58
2023-02-27T04:51:52.011Z,84.84
2023-02-27T04:56:01.548Z,84.12
2023-02-27T05:00:09.280Z,84.57
2023-02-27T05:04:16.041Z,85.04
2023-02-27T05:08:24.340Z,85.26
2023-02-27T05:12:36.334Z,84.99
2023-02-27T05:16:46.670Z,84.85
2023-02-27T05:21:06.621Z,84.60
2023-02-27T05:25:16.113Z,84.25
2023-02-27T05:29:31.512Z,84.32
2023-02-27T05:34:05.869Z,84.25
2023-02-27T05:38:08.796Z,84.91
2023-02-27T05:42:18.344Z,84.77
2023-02-27T05:46:26.928Z,84.95
2023-02-27T05:50:33.967Z,85.02
2023-02-27T05:54:52.066Z,85.82
2023-02-27T05:59:01.080Z,87.52
2023-02-27T06:03:04.260Z,86.42
2023-02-27T06:07:08.643Z,86.39
2023-02-27T06:11:13.323Z,85.98
2023-02-27T06:15:17.556Z,85.50
2023-02-27T06:19:20.424Z,85.54
2023-02-27T06:23:23.255Z,85.76
2023-02-27T06:27:29.232Z,86.49
2023-02-27T06:31:32.091Z,86.39
2023-02-27T06:35:35.124Z,86.14
2023-02-27T06:39:45.224Z,85.89
2023-02-27T06:43:55.778Z,85.93
2023-02-27T06:47:58.586Z,85.42
2023-02-27T06:52:01.413Z,84.65
2023-02-27T06:56:04.866Z,84.13
2023-02-27T07:00:08.388Z,84.16
2023-02-27T07:04:14.250Z,85.29
2023-02-27T07:08:17.765Z,85.38
2023-02-27T07:12:20.745Z,85.74
2023-02-27T07:16:23.950Z,85.62
2023-02-27T07:20:27.487Z,85.40
2023-02-27T07:24:30.372Z,84.21
2023-02-27T07:28:33.464Z,84.17
2023-02-27T07:32:36.376Z,84.02
2023-02-27T07:36:39.703Z,83.53
2023-02-27T07:40:42.636Z,84.16
2023-02-27T07:44:45.703Z,83.60
2023-02-27T07:48:48.636Z,82.68
2023-02-27T07:52:52.480Z,83.07
2023-02-27T07:56:55.892Z,82.02
2023-02-27T08:01:03.655Z,81.26
2023-02-27T08:05:10.785Z,79.86
2023-02-27T08:09:47.712Z,79.76
2023-02-27T08:14:06.146Z,78.51
2023-02-27T08:18:11.112Z,78.78
2023-02-27T08:22:14.678Z,79.40
2023-02-27T08:26:18.958Z,80.83
2023-02-27T08:30:23.073Z,79.41
2023-02-27T08:34:26.546Z,79.10
2023-02-27T08:38:30.328Z,78.44
2023-02-27T08:42:34.254Z,78.94
2023-02-27T08:46:37.862Z,78.56
2023-02-27T08:50:40.980Z,79.17
2023-02-27T08:54:44.195Z,77.24
2023-02-27T08:58:48.952Z,78.05
2023-02-27T09:02:52.059Z,77.34
2023-02-27T09:06:55.299Z,77.76
2023-02-27T09:10:58.674Z,76.90
2023-02-27T09:15:02.344Z,76.67
2023-02-27T09:19:05.789Z,77.11
2023-02-27T09:23:09.573Z,76.64
2023-02-27T09:27:14.231Z,75.23
2023-02-27T09:31:18.403Z,75.28
2023-02-27T09:35:21.714Z,76.24
2023-02-27T09:39:25.127Z,75.71
2023-02-27T09:43:49.752Z,75.09
2023-02-27T09:48:25.438Z,75.08
2023-02-27T09:52:31.342Z,76.08
2023-02-27T09:56:49.417Z,76.27
2023-02-27T10:01:05.678Z,75.29
2023-02-27T10:05:14.658Z,75.83
2023-02-27T10:09:42.987Z,74.74
2023-02-27T10:14:02.228Z,73.44
2023-02-27T10:18:25.386Z,73.35
2023-02-27T10:22:43.548Z,73.24
2023-02-27T10:26:46.724Z,73.18
2023-02-27T10:30:53.288Z,72.50
2023-02-27T10:35:06.672Z,71.72
2023-02-27T10:39:14.459Z,72.05
2023-02-27T10:43:19.681Z,70.46
2023-02-27T10:47:24.963Z,72.03
2023-02-27T10:51:36.381Z,71.60
2023-02-27T10:55:48.717Z,70.91
2023-02-27T10:59:55.937Z,70.19
2023-02-27T11:04:00.389Z,69.83
2023-02-27T11:08:30.966Z,70.44
2023-02-27T11:12:35.633Z,69.31
2023-02-27T11:16:54.896Z,67.44
2023-02-27T11:21:12.456Z,66.56
2023-02-27T11:25:24.592Z,65.83
2023-02-27T11:29:28.972Z,69.05
2023-02-27T11:33:38.433Z,72.31
2023-02-27T11:37:42.130Z,75.31
2023-02-27T11:41:45.872Z,74.82
2023-02-27T11:46:13.432Z,73.77
2023-02-27T11:50:31.658Z,72.80
2023-02-27T11:54:51.266Z,73.23
2023-02-27T11:59:12.728Z,73.53
2023-02-27T12:03:28.031Z,74.41
2023-02-27T12:07:49.960Z,74.21
2023-02-27T12:11:54.980Z,75.98
2023-02-27T12:16:08.195Z,74.09
2023-02-27T12:20:30.766Z,74.07
2023-02-27T12:24:47.716Z,74.52
2023-02-27T12:28:58.406Z,72.62
2023-02-27T12:33:36.583Z,73.64
2023-02-27T12:37:40.210Z,74.71
2023-02-27T12:41:51.897Z,75.85
2023-02-27T12:46:05.661Z,76.24
2023-02-27T12:50:17.252Z,74.98
2023-02-27T12:54:20.477Z,75.45
2023-02-27T12:58:26.336Z,74.57
2023-02-27T13:02:35.311Z,76.55
2023-02-27T13:07:04.420Z,76.45
2023-02-27T13:11:30.953Z,75.64
2023-02-27T13:15:45.943Z,76.36
2023-02-27T13:20:12.450Z,76.65
2023-02-27T13:24:23.918Z,76.65
2023-02-27T13:28:29.723Z,74.73
2023-02-27T13:32:45.640Z,75.56
2023-02-27T13:36:58.053Z,75.26
2023-02-27T13:41:25.482Z,73.81
2023-02-27T13:45:54.723Z,73.51
2023-02-27T13:50:03.288Z,72.02
2023-02-27T13:54:15.331Z,70.73
2023-02-27T13:58:24.730Z,70.14
2023-02-27T14:02:59.902Z,69.77
2023-02-27T14:07:11.371Z,68.93
2023-02-27T14:11:18.274Z,68.71
2023-02-27T14:15:24.422Z,68.34
2023-02-27T14:20:07.592Z,66.18
2023-02-27T14:24:19.638Z,67.48
2023-02-27T14:28:30.841Z,66.21
2023-02-27T14:32:37.228Z,65.02
2023-02-27T14:36:52.446Z,65.31
2023-02-27T14:41:34.483Z,65.09
2023-02-27T14:45:37.865Z,65.69
2023-02-27T14:54:52.786Z,65.20
2023-02-27T14:59:04.364Z,65.65
2023-02-27T15:03:26.484Z,64.30
2023-02-27T15:07:33.469Z,64.98
2023-02-27T15:11:43.230Z,65.38
2023-02-27T15:15:48.933Z,67.30
2023-02-27T15:19:56.989Z,66.56
2023-02-27T15:24:04.372Z,65.77
2023-02-27T15:28:22.573Z,66.75
2023-02-27T15:32:29.949Z,69.08
2023-02-27T15:36:35.786Z,70.50
2023-02-27T15:40:39.336Z,70.49
2023-02-27T15:44:45.749Z,71.79
2023-02-27T15:48:51.542Z,72.27
2023-02-27T15:53:07.185Z,72.38
2023-02-27T15:57:10.619Z,72.28
2023-02-27T16:01:19.232Z,71.88
2023-02-27T16:05:30.808Z,72.66
2023-02-27T16:09:37.145Z,72.82
2023-02-27T16:13:41.386Z,73.49
2023-02-27T16:18:22.557Z,72.37
2023-02-27T16:22:26.402Z,71.73
2023-02-27T16:26:32.419Z,70.83
2023-02-27T16:30:35.563Z,70.80
2023-02-27T16:34:45.442Z,71.02
2023-02-27T16:38:50.856Z,71.41
2023-02-27T16:42:53.946Z,71.68
2023-02-27T16:46:58.933Z,71.79
2023-02-27T16:51:02.237Z,72.80
2023-02-27T16:55:05.453Z,73.61
2023-02-27T16:59:28.346Z,73.88
2023-02-27T17:03:31.444Z,73.91
2023-02-27T17:07:34.333Z,73.99
2023-02-27T17:11:37.195Z,74.14
2023-02-27T17:15:39.955Z,74.38
2023-02-27T17:19:42.792Z,74.20
2023-02-27T17:23:46.798Z,74.72
2023-02-27T17:27:50.205Z,74.97
2023-02-27T17:31:53.148Z,75.58
2023-02-27T17:36:07.281Z,74.88
2023-02-27T17:40:12.280Z,74.84
2023-02-27T17:44:15.241Z,74.57
2023-02-27T17:48:18.391Z,75.20
2023-02-27T17:52:21.224Z,75.35
2023-02-27T17:56:24.331Z,75.16
2023-02-27T18:00:27.307Z,75.25
2023-02-27T18:04:30.251Z,75.35
2023-02-27T18:08:34.066Z,75.19
2023-02-27T18:12:37.179Z,75.21
2023-02-27T18:16:40.093Z,75.12
2023-02-27T18:20:43.177Z,75.23
2023-02-27T18:24:45.979Z,74.91
2023-02-27T18:28:49.199Z,74.89
2023-02-27T18:32:56.393Z,74.79
2023-02-27T18:36:59.285Z,74.91
2023-02-27T18:41:03.458Z,74.95
2023-02-27T18:45:06.745Z,75.62
2023-02-27T18:49:09.744Z,75.77
2023-02-27T18:53:12.571Z,75.41
2023-02-27T18:57:15.760Z,74.78
2023-02-27T19:01:29.870Z,74.89
2023-02-27T19:05:33.125Z,74.57
2023-02-27T19:09:35.900Z,73.12
2023-02-27T19:13:39.023Z,72.84
2023-02-27T19:17:41.809Z,72.74
2023-02-27T19:21:45.091Z,73.01
2023-02-27T19:25:49.096Z,73.40
2023-02-27T19:29:51.975Z,73.67
2023-02-27T19:33:54.954Z,73.93
2023-02-27T19:37:58.255Z,74.36
2023-02-27T19:42:01.210Z,74.65
2023-02-27T19:46:12.521Z,74.93
2023-02-27T19:50:16.322Z,75.39
2023-02-27T19:54:19.810Z,75.49
2023-02-27T19:58:22.856Z,75.38
2023-02-27T20:02:26.450Z,75.24
2023-02-27T20:06:33.061Z,75.26
2023-02-27T20:10:35.916Z,74.98
2023-02-27T20:14:38.766Z,74.91
2023-02-27T20:18:43.454Z,74.85
2023-02-27T20:22:46.462Z,74.57
2023-02-27T20:26:53.455Z,74.17
2023-02-27T20:30:56.319Z,74.03
2023-02-27T20:34:59.247Z,74.10
2023-02-27T20:39:02.803Z,74.11
2023-02-27T20:43:05.847Z,74.44
2023-02-27T20:47:09.208Z,74.65
2023-02-27T20:51:24.337Z,74.95
2023-02-27T20:55:27.133Z,74.27
2023-02-27T20:59:29.963Z,73.50
2023-02-27T21:03:38.447Z,73.21
2023-02-27T21:07:42.033Z,73.04
2023-02-27T21:11:45.105Z,73.37
2023-02-27T21:15:48.042Z,73.09
2023-02-27T21:19:51.105Z,72.72
2023-02-27T21:23:54.509Z,72.20
2023-02-27T21:28:02.256Z,71.69
2023-02-27T21:32:05.671Z,71.53
2023-02-27T21:36:09.595Z,71.51
2023-02-27T21:40:12.852Z,71.12
2023-02-27T21:44:18.921Z,71.05
2023-02-27T21:48:21.733Z,71.43
2023-02-27T21:52:24.621Z,73.32
2023-02-27T21:56:29.746Z,73.34
2023-02-27T22:00:33.665Z,73.40
2023-02-27T22:04:36.659Z,74.39
2023-02-27T22:08:40.263Z,73.65
2023-02-27T22:12:43.083Z,74.28
2023-02-27T22:16:45.970Z,75.13
2023-02-27T22:20:48.861Z,76.10
2023-02-27T22:24:51.781Z,76.53
2023-02-27T22:28:58.629Z,77.50
2023-02-27T22:33:01.505Z,78.59
2023-02-27T22:37:04.449Z,78.54
2023-02-27T22:41:12.866Z,78.55
2023-02-27T22:45:15.753Z,77.93
2023-02-27T22:49:21.594Z,79.00
2023-02-27T22:53:24.675Z,79.08
2023-02-27T22:57:27.560Z,79.38
2023-02-27T23:01:32.736Z,78.83
2023-02-27T23:05:35.733Z,78.86
2023-02-27T23:09:38.550Z,79.47
2023-02-27T23:13:41.686Z,79.62
2023-02-27T23:17:56.616Z,79.49
2023-02-27T23:22:01.019Z,79.63
2023-02-27T23:26:05.714Z,80.67
2023-02-27T23:30:10.570Z,80.46
2023-02-27T23:34:13.385Z,81.00
2023-02-27T23:38:16.272Z,80.82
2023-02-27T23:42:19.265Z,81.43
2023-02-27T23:46:22.054Z,81.74
2023-02-27T23:50:28.130Z,82.70
2023-02-27T23:54:30.984Z,82.05
2023-02-27T23:58:33.868Z,81.99
